sensor_id;sensor_type;location;lat;lon;timestamp;pressure;altitude;pressure_sealevel;temperature;humidity
24996;BME280;13016;52.162;21.034;2023-02-20T00:02:17;100521.65;;;7.09;52.56
24996;BME280;13016;52.162;21.034;2023-02-20T00:04:42;100520.29;;;7.00;52.75
24996;BME280;13016;52.162;21.034;2023-02-20T00:07:07;100516.25;;;6.72;53.15
24996;BME280;13016;52.162;21.034;2023-02-20T00:09:32;100517.43;;;6.77;53.39
24996;BME280;13016;52.162;21.034;2023-02-20T00:11:58;100511.80;;;6.90;52.88
24996;BME280;13016;52.162;21.034;2023-02-20T00:14:23;100515.63;;;7.02;52.42
24996;BME280;13016;52.162;21.034;2023-02-20T00:16:49;100507.38;;;7.07;52.34
24996;BME280;13016;52.162;21.034;2023-02-20T00:19:17;100505.33;;;7.10;51.87
24996;BME280;13016;52.162;21.034;2023-02-20T00:21:44;100497.50;;;7.00;51.97
24996;BME280;13016;52.162;21.034;2023-02-20T00:24:10;100492.54;;;7.01;51.69
24996;BME280;13016;52.162;21.034;2023-02-20T00:26:35;100495.25;;;7.03;51.53
24996;BME280;13016;52.162;21.034;2023-02-20T00:29:00;100493.88;;;7.07;51.31
24996;BME280;13016;52.162;21.034;2023-02-20T00:31:25;100492.86;;;7.05;50.99
24996;BME280;13016;52.162;21.034;2023-02-20T00:33:51;100494.67;;;6.88;51.28
24996;BME280;13016;52.162;21.034;2023-02-20T00:36:18;100494.55;;;6.75;51.61
24996;BME280;13016;52.162;21.034;2023-02-20T00:38:45;100499.56;;;6.93;51.23
24996;BME280;13016;52.162;21.034;2023-02-20T00:41:11;100498.92;;;7.07;50.88
24996;BME280;13016;52.162;21.034;2023-02-20T00:43:37;100500.23;;;7.13;50.60
24996;BME280;13016;52.162;21.034;2023-02-20T00:46:02;100501.42;;;7.26;50.07
24996;BME280;13016;52.162;21.034;2023-02-20T00:48:27;100502.56;;;7.28;49.75
24996;BME280;13016;52.162;21.034;2023-02-20T00:50:53;100506.98;;;7.27;49.40
24996;BME280;13016;52.162;21.034;2023-02-20T00:53:18;100505.89;;;7.20;49.19
24996;BME280;13016;52.162;21.034;2023-02-20T00:55:43;100509.47;;;7.07;49.71
24996;BME280;13016;52.162;21.034;2023-02-20T00:58:09;100505.59;;;7.19;49.61
24996;BME280;13016;52.162;21.034;2023-02-20T01:00:34;100502.02;;;7.05;49.56
24996;BME280;13016;52.162;21.034;2023-02-20T01:03:00;100499.71;;;6.97;49.96
24996;BME280;13016;52.162;21.034;2023-02-20T01:05:25;100504.60;;;7.06;49.78
24996;BME280;13016;52.162;21.034;2023-02-20T01:07:51;100500.31;;;7.12;49.55
24996;BME280;13016;52.162;21.034;2023-02-20T01:10:16;100488.55;;;6.96;49.58
24996;BME280;13016;52.162;21.034;2023-02-20T01:12:41;100488.53;;;6.96;49.98
24996;BME280;13016;52.162;21.034;2023-02-20T01:15:08;100491.38;;;6.96;49.70
24996;BME280;13016;52.162;21.034;2023-02-20T01:17:33;100495.02;;;7.00;49.68
24996;BME280;13016;52.162;21.034;2023-02-20T01:19:59;100493.50;;;7.07;49.50
24996;BME280;13016;52.162;21.034;2023-02-20T01:22:24;100494.55;;;7.03;49.68
24996;BME280;13016;52.162;21.034;2023-02-20T01:24:49;100498.64;;;7.06;49.44
24996;BME280;13016;52.162;21.034;2023-02-20T01:27:15;100490.39;;;6.94;49.70
24996;BME280;13016;52.162;21.034;2023-02-20T01:29:41;100480.14;;;6.92;49.75
24996;BME280;13016;52.162;21.034;2023-02-20T01:32:06;100479.13;;;6.91;49.88
24996;BME280;13016;52.162;21.034;2023-02-20T01:34:34;100472.98;;;6.88;49.93
24996;BME280;13016;52.162;21.034;2023-02-20T01:36:59;100472.91;;;6.89;49.81
24996;BME280;13016;52.162;21.034;2023-02-20T01:39:26;100472.22;;;6.93;49.79
24996;BME280;13016;52.162;21.034;2023-02-20T01:41:59;100475.11;;;7.03;49.65
24996;BME280;13016;52.162;21.034;2023-02-20T01:44:36;100473.55;;;7.02;49.74
24996;BME280;13016;52.162;21.034;2023-02-20T01:47:06;100478.24;;;7.03;49.80
24996;BME280;13016;52.162;21.034;2023-02-20T01:49:44;100484.31;;;7.01;49.85
24996;BME280;13016;52.162;21.034;2023-02-20T01:52:46;100484.59;;;7.02;49.66
24996;BME280;13016;52.162;21.034;2023-02-20T01:55:10;100478.79;;;7.03;49.82
24996;BME280;13016;52.162;21.034;2023-02-20T01:57:40;100474.52;;;7.12;49.67
24996;BME280;13016;52.162;21.034;2023-02-20T02:00:13;100467.67;;;7.19;49.66
24996;BME280;13016;52.162;21.034;2023-02-20T02:02:42;100465.77;;;7.07;49.77
24996;BME280;13016;52.162;21.034;2023-02-20T02:05:10;100470.88;;;7.11;49.96
24996;BME280;13016;52.162;21.034;2023-02-20T02:07:36;100460.41;;;7.06;50.05
24996;BME280;13016;52.162;21.034;2023-02-20T02:10:07;100466.42;;;7.09;50.09
24996;BME280;13016;52.162;21.034;2023-02-20T02:12:34;100463.45;;;7.04;49.90
24996;BME280;13016;52.162;21.034;2023-02-20T02:15:00;100469.84;;;7.10;50.06
24996;BME280;13016;52.162;21.034;2023-02-20T02:23:13;100451.77;;;7.14;49.92
24996;BME280;13016;52.162;21.034;2023-02-20T02:34:28;100452.45;;;7.15;49.43
24996;BME280;13016;52.162;21.034;2023-02-20T02:40:02;100457.73;;;7.07;49.88
24996;BME280;13016;52.162;21.034;2023-02-20T02:45:29;100447.67;;;7.20;49.59
24996;BME280;13016;52.162;21.034;2023-02-20T02:47:59;100444.05;;;7.10;49.88
24996;BME280;13016;52.162;21.034;2023-02-20T02:50:35;100452.02;;;7.09;50.10
24996;BME280;13016;52.162;21.034;2023-02-20T02:53:06;100443.15;;;7.19;49.88
24996;BME280;13016;52.162;21.034;2023-02-20T02:55:33;100446.32;;;7.11;50.13
24996;BME280;13016;52.162;21.034;2023-02-20T02:58:05;100450.83;;;7.08;50.11
24996;BME280;13016;52.162;21.034;2023-02-20T03:00:52;100448.67;;;7.05;50.23
24996;BME280;13016;52.162;21.034;2023-02-20T03:03:24;100447.17;;;7.04;50.24
24996;BME280;13016;52.162;21.034;2023-02-20T03:06:08;100443.64;;;7.04;50.19
24996;BME280;13016;52.162;21.034;2023-02-20T03:08:39;100449.75;;;7.05;50.22
24996;BME280;13016;52.162;21.034;2023-02-20T03:13:36;100447.37;;;7.00;50.18
24996;BME280;13016;52.162;21.034;2023-02-20T03:16:03;100448.70;;;6.93;50.44
24996;BME280;13016;52.162;21.034;2023-02-20T03:18:38;100447.80;;;6.90;50.31
24996;BME280;13016;52.162;21.034;2023-02-20T03:21:16;100454.40;;;7.07;50.19
24996;BME280;13016;52.162;21.034;2023-02-20T03:23:46;100449.41;;;7.05;50.15
24996;BME280;13016;52.162;21.034;2023-02-20T03:26:16;100451.16;;;7.16;49.83
24996;BME280;13016;52.162;21.034;2023-02-20T03:28:46;100450.31;;;7.12;49.85
24996;BME280;13016;52.162;21.034;2023-02-20T03:31:22;100445.49;;;7.06;50.08
24996;BME280;13016;52.162;21.034;2023-02-20T03:34:02;100439.89;;;6.90;50.32
24996;BME280;13016;52.162;21.034;2023-02-20T03:36:36;100438.65;;;7.02;50.37
24996;BME280;13016;52.162;21.034;2023-02-20T03:39:05;100438.29;;;7.14;49.93
24996;BME280;13016;52.162;21.034;2023-02-20T03:41:34;100442.08;;;7.16;49.79
24996;BME280;13016;52.162;21.034;2023-02-20T03:44:03;100445.05;;;6.96;50.22
24996;BME280;13016;52.162;21.034;2023-02-20T03:46:31;100445.49;;;7.14;49.92
24996;BME280;13016;52.162;21.034;2023-02-20T03:49:05;100445.27;;;7.30;49.68
24996;BME280;13016;52.162;21.034;2023-02-20T03:51:32;100447.93;;;7.17;49.59
24996;BME280;13016;52.162;21.034;2023-02-20T03:53:58;100445.66;;;7.10;49.83
24996;BME280;13016;52.162;21.034;2023-02-20T03:56:30;100442.83;;;7.22;49.78
24996;BME280;13016;52.162;21.034;2023-02-20T03:59:01;100438.39;;;7.23;49.41
24996;BME280;13016;52.162;21.034;2023-02-20T04:01:29;100436.86;;;7.26;49.53
24996;BME280;13016;52.162;21.034;2023-02-20T04:03:56;100435.61;;;7.19;49.37
24996;BME280;13016;52.162;21.034;2023-02-20T04:06:26;100439.36;;;7.25;49.58
24996;BME280;13016;52.162;21.034;2023-02-20T04:09:00;100441.25;;;7.33;49.28
24996;BME280;13016;52.162;21.034;2023-02-20T04:11:34;100435.89;;;7.35;49.22
24996;BME280;13016;52.162;21.034;2023-02-20T04:14:01;100437.17;;;7.23;49.26
24996;BME280;13016;52.162;21.034;2023-02-20T04:16:28;100433.57;;;7.21;49.48
24996;BME280;13016;52.162;21.034;2023-02-20T04:18:54;100429.63;;;7.26;49.32
24996;BME280;13016;52.162;21.034;2023-02-20T04:21:38;100427.42;;;7.17;49.59
24996;BME280;13016;52.162;21.034;2023-02-20T04:24:13;100420.00;;;7.22;49.66
24996;BME280;13016;52.162;21.034;2023-02-20T04:26:41;100418.04;;;7.27;49.38
24996;BME280;13016;52.162;21.034;2023-02-20T04:29:06;100419.20;;;7.24;49.40
24996;BME280;13016;52.162;21.034;2023-02-20T04:31:32;100419.09;;;7.08;49.91
24996;BME280;13016;52.162;21.034;2023-02-20T04:33:58;100416.91;;;7.13;49.84
24996;BME280;13016;52.162;21.034;2023-02-20T04:36:24;100415.73;;;7.16;49.76
24996;BME280;13016;52.162;21.034;2023-02-20T04:38:50;100413.89;;;7.18;49.80
24996;BME280;13016;52.162;21.034;2023-02-20T04:41:16;100408.27;;;7.07;49.82
24996;BME280;13016;52.162;21.034;2023-02-20T04:43:41;100406.52;;;6.91;50.34
24996;BME280;13016;52.162;21.034;2023-02-20T04:46:07;100397.48;;;7.05;50.25
24996;BME280;13016;52.162;21.034;2023-02-20T04:48:32;100393.39;;;7.06;50.19
24996;BME280;13016;52.162;21.034;2023-02-20T04:50:57;100393.45;;;7.12;50.22
24996;BME280;13016;52.162;21.034;2023-02-20T04:53:23;100389.50;;;6.99;50.29
24996;BME280;13016;52.162;21.034;2023-02-20T04:55:48;100381.23;;;7.04;50.55
24996;BME280;13016;52.162;21.034;2023-02-20T04:58:13;100385.75;;;7.12;50.52
24996;BME280;13016;52.162;21.034;2023-02-20T05:00:39;100384.20;;;7.19;50.51
24996;BME280;13016;52.162;21.034;2023-02-20T05:03:04;100379.50;;;7.26;50.46
24996;BME280;13016;52.162;21.034;2023-02-20T05:05:29;100385.50;;;7.28;50.24
24996;BME280;13016;52.162;21.034;2023-02-20T05:08:00;100381.73;;;7.04;50.77
24996;BME280;13016;52.162;21.034;2023-02-20T05:10:27;100378.71;;;7.05;51.15
24996;BME280;13016;52.162;21.034;2023-02-20T05:12:53;100380.06;;;7.17;51.00
24996;BME280;13016;52.162;21.034;2023-02-20T05:15:19;100378.42;;;7.11;51.05
24996;BME280;13016;52.162;21.034;2023-02-20T05:17:44;100365.14;;;7.17;51.20
24996;BME280;13016;52.162;21.034;2023-02-20T05:20:11;100364.61;;;7.29;51.01
24996;BME280;13016;52.162;21.034;2023-02-20T05:22:37;100366.33;;;7.37;50.85
24996;BME280;13016;52.162;21.034;2023-02-20T05:25:03;100364.87;;;7.38;50.83
24996;BME280;13016;52.162;21.034;2023-02-20T05:27:28;100362.71;;;7.25;51.20
24996;BME280;13016;52.162;21.034;2023-02-20T05:29:56;100357.36;;;7.04;51.87
24996;BME280;13016;52.162;21.034;2023-02-20T05:32:25;100360.55;;;7.22;51.58
24996;BME280;13016;52.162;21.034;2023-02-20T05:34:51;100363.95;;;7.24;51.41
24996;BME280;13016;52.162;21.034;2023-02-20T05:37:17;100363.98;;;7.20;51.47
24996;BME280;13016;52.162;21.034;2023-02-20T05:39:43;100367.05;;;7.25;51.66
24996;BME280;13016;52.162;21.034;2023-02-20T05:42:10;100372.73;;;7.28;51.46
24996;BME280;13016;52.162;21.034;2023-02-20T05:44:35;100370.13;;;7.31;51.36
24996;BME280;13016;52.162;21.034;2023-02-20T05:47:01;100366.48;;;7.41;51.22
24996;BME280;13016;52.162;21.034;2023-02-20T05:49:27;100363.56;;;7.46;50.90
24996;BME280;13016;52.162;21.034;2023-02-20T05:51:55;100355.65;;;7.32;51.00
24996;BME280;13016;52.162;21.034;2023-02-20T05:54:21;100338.60;;;7.37;51.11
24996;BME280;13016;52.162;21.034;2023-02-20T05:56:47;100332.30;;;7.33;51.15
24996;BME280;13016;52.162;21.034;2023-02-20T05:59:17;100339.02;;;7.36;51.35
24996;BME280;13016;52.162;21.034;2023-02-20T06:01:42;100338.49;;;7.46;51.01
24996;BME280;13016;52.162;21.034;2023-02-20T06:04:08;100335.36;;;7.49;51.07
24996;BME280;13016;52.162;21.034;2023-02-20T06:06:38;100330.39;;;7.57;50.81
24996;BME280;13016;52.162;21.034;2023-02-20T06:09:05;100326.16;;;7.51;51.07
24996;BME280;13016;52.162;21.034;2023-02-20T06:11:31;100327.41;;;7.68;50.95
24996;BME280;13016;52.162;21.034;2023-02-20T06:13:56;100329.70;;;7.78;50.42
24996;BME280;13016;52.162;21.034;2023-02-20T06:16:23;100332.85;;;7.71;50.56
24996;BME280;13016;52.162;21.034;2023-02-20T06:18:49;100326.51;;;7.75;50.55
24996;BME280;13016;52.162;21.034;2023-02-20T06:21:14;100321.28;;;7.85;50.53
24996;BME280;13016;52.162;21.034;2023-02-20T06:23:43;100320.99;;;7.90;50.40
24996;BME280;13016;52.162;21.034;2023-02-20T06:26:08;100315.48;;;7.85;50.76
24996;BME280;13016;52.162;21.034;2023-02-20T06:28:34;100317.64;;;7.97;50.42
24996;BME280;13016;52.162;21.034;2023-02-20T06:30:59;100312.23;;;8.03;50.49
24996;BME280;13016;52.162;21.034;2023-02-20T06:33:30;100316.07;;;8.07;50.29
24996;BME280;13016;52.162;21.034;2023-02-20T06:35:56;100310.63;;;8.00;50.64
24996;BME280;13016;52.162;21.034;2023-02-20T06:38:21;100312.30;;;8.05;50.45
24996;BME280;13016;52.162;21.034;2023-02-20T06:40:46;100306.92;;;8.11;50.57
24996;BME280;13016;52.162;21.034;2023-02-20T06:43:12;100303.55;;;8.19;50.28
24996;BME280;13016;52.162;21.034;2023-02-20T06:45:38;100292.46;;;8.09;50.50
24996;BME280;13016;52.162;21.034;2023-02-20T06:48:03;100290.25;;;8.10;50.88
24996;BME280;13016;52.162;21.034;2023-02-20T06:50:28;100294.20;;;8.37;50.49
24996;BME280;13016;52.162;21.034;2023-02-20T06:52:53;100294.88;;;8.47;50.18
24996;BME280;13016;52.162;21.034;2023-02-20T06:55:19;100298.72;;;8.47;50.01
24996;BME280;13016;52.162;21.034;2023-02-20T06:57:44;100288.39;;;8.53;49.86
24996;BME280;13016;52.162;21.034;2023-02-20T07:00:10;100285.59;;;8.49;49.96
24996;BME280;13016;52.162;21.034;2023-02-20T07:02:35;100283.25;;;8.44;50.15
24996;BME280;13016;52.162;21.034;2023-02-20T07:05:01;100284.70;;;8.59;49.98
24996;BME280;13016;52.162;21.034;2023-02-20T07:07:27;100286.02;;;8.67;49.83
24996;BME280;13016;52.162;21.034;2023-02-20T07:09:52;100285.06;;;8.75;49.75
24996;BME280;13016;52.162;21.034;2023-02-20T07:12:17;100289.20;;;8.70;49.79
24996;BME280;13016;52.162;21.034;2023-02-20T07:14:42;100291.81;;;8.68;49.95
24996;BME280;13016;52.162;21.034;2023-02-20T07:17:08;100282.23;;;8.69;49.94
24996;BME280;13016;52.162;21.034;2023-02-20T07:19:40;100273.02;;;8.76;49.95
24996;BME280;13016;52.162;21.034;2023-02-20T07:22:06;100263.17;;;8.92;49.75
24996;BME280;13016;52.162;21.034;2023-02-20T07:24:31;100269.30;;;8.83;49.87
24996;BME280;13016;52.162;21.034;2023-02-20T07:26:56;100262.94;;;8.96;49.81
24996;BME280;13016;52.162;21.034;2023-02-20T07:29:22;100262.51;;;9.16;49.49
24996;BME280;13016;52.162;21.034;2023-02-20T07:31:47;100262.23;;;9.18;49.19
24996;BME280;13016;52.162;21.034;2023-02-20T07:34:13;100262.39;;;9.18;49.21
24996;BME280;13016;52.162;21.034;2023-02-20T07:36:40;100262.83;;;9.20;49.31
24996;BME280;13016;52.162;21.034;2023-02-20T07:39:05;100259.39;;;9.15;49.31
24996;BME280;13016;52.162;21.034;2023-02-20T07:41:31;100266.59;;;9.06;49.57
24996;BME280;13016;52.162;21.034;2023-02-20T07:43:57;100263.21;;;9.16;49.82
24996;BME280;13016;52.162;21.034;2023-02-20T07:46:22;100265.41;;;9.36;49.37
24996;BME280;13016;52.162;21.034;2023-02-20T07:48:48;100264.24;;;9.38;49.14
24996;BME280;13016;52.162;21.034;2023-02-20T07:51:14;100263.42;;;9.40;49.11
24996;BME280;13016;52.162;21.034;2023-02-20T07:53:46;100262.23;;;9.51;49.01
24996;BME280;13016;52.162;21.034;2023-02-20T07:56:12;100247.81;;;9.69;48.85
24996;BME280;13016;52.162;21.034;2023-02-20T07:58:40;100235.17;;;9.74;48.54
24996;BME280;13016;52.162;21.034;2023-02-20T08:01:06;100229.55;;;9.77;48.48
24996;BME280;13016;52.162;21.034;2023-02-20T08:03:34;100225.95;;;9.83;48.35
24996;BME280;13016;52.162;21.034;2023-02-20T08:05:59;100220.77;;;9.67;48.46
24996;BME280;13016;52.162;21.034;2023-02-20T08:08:24;100214.20;;;9.50;48.98
24996;BME280;13016;52.162;21.034;2023-02-20T08:10:50;100211.14;;;9.64;48.85
24996;BME280;13016;52.162;21.034;2023-02-20T08:13:16;100200.77;;;9.46;49.33
24996;BME280;13016;52.162;21.034;2023-02-20T08:15:42;100188.62;;;9.54;49.52
24996;BME280;13016;52.162;21.034;2023-02-20T08:18:07;100190.86;;;9.79;49.23
24996;BME280;13016;52.162;21.034;2023-02-20T08:20:32;100182.69;;;9.91;49.12
24996;BME280;13016;52.162;21.034;2023-02-20T08:22:57;100179.19;;;9.85;48.99
24996;BME280;13016;52.162;21.034;2023-02-20T08:25:24;100172.95;;;9.92;49.29
24996;BME280;13016;52.162;21.034;2023-02-20T08:27:50;100173.27;;;10.09;48.91
24996;BME280;13016;52.162;21.034;2023-02-20T08:30:25;100172.95;;;9.97;49.11
24996;BME280;13016;52.162;21.034;2023-02-20T08:32:52;100168.79;;;10.02;49.53
24996;BME280;13016;52.162;21.034;2023-02-20T08:35:18;100156.87;;;10.18;49.61
24996;BME280;13016;52.162;21.034;2023-02-20T08:37:47;100152.73;;;10.22;49.38
24996;BME280;13016;52.162;21.034;2023-02-20T08:40:13;100146.36;;;9.97;49.91
24996;BME280;13016;52.162;21.034;2023-02-20T08:42:38;100139.27;;;10.12;49.89
24996;BME280;13016;52.162;21.034;2023-02-20T08:45:05;100138.24;;;10.15;49.45
24996;BME280;13016;52.162;21.034;2023-02-20T08:47:34;100139.80;;;9.87;50.26
24996;BME280;13016;52.162;21.034;2023-02-20T08:49:59;100137.10;;;9.70;51.45
24996;BME280;13016;52.162;21.034;2023-02-20T08:52:24;100129.90;;;9.73;51.70
24996;BME280;13016;52.162;21.034;2023-02-20T08:54:50;100130.70;;;9.63;52.47
24996;BME280;13016;52.162;21.034;2023-02-20T08:57:16;100125.85;;;9.47;53.45
24996;BME280;13016;52.162;21.034;2023-02-20T08:59:42;100127.58;;;9.42;54.00
24996;BME280;13016;52.162;21.034;2023-02-20T09:02:15;100118.87;;;9.35;54.75
24996;BME280;13016;52.162;21.034;2023-02-20T09:04:46;100111.50;;;9.52;54.84
24996;BME280;13016;52.162;21.034;2023-02-20T09:07:12;100109.19;;;9.63;54.96
24996;BME280;13016;52.162;21.034;2023-02-20T09:09:38;100098.34;;;9.25;55.90
24996;BME280;13016;52.162;21.034;2023-02-20T09:12:04;100088.08;;;9.20;56.48
24996;BME280;13016;52.162;21.034;2023-02-20T09:14:30;100085.30;;;9.34;56.53
24996;BME280;13016;52.162;21.034;2023-02-20T09:16:55;100074.44;;;9.42;56.84
24996;BME280;13016;52.162;21.034;2023-02-20T09:19:20;100062.50;;;9.58;56.63
24996;BME280;13016;52.162;21.034;2023-02-20T09:21:47;100053.58;;;9.66;56.25
24996;BME280;13016;52.162;21.034;2023-02-20T09:24:12;100050.29;;;9.59;56.39
24996;BME280;13016;52.162;21.034;2023-02-20T09:26:38;100039.09;;;9.18;57.72
24996;BME280;13016;52.162;21.034;2023-02-20T09:29:03;100036.09;;;8.98;57.88
24996;BME280;13016;52.162;21.034;2023-02-20T09:31:28;100034.11;;;8.69;59.20
24996;BME280;13016;52.162;21.034;2023-02-20T09:33:54;100029.35;;;8.84;59.11
24996;BME280;13016;52.162;21.034;2023-02-20T09:36:19;100023.02;;;8.87;59.26
24996;BME280;13016;52.162;21.034;2023-02-20T09:38:44;100014.61;;;8.54;60.04
24996;BME280;13016;52.162;21.034;2023-02-20T09:50:08;99961.84;;;8.43;61.20
24996;BME280;13016;52.162;21.034;2023-02-20T09:52:37;99950.55;;;8.55;61.45
24996;BME280;13016;52.162;21.034;2023-02-20T09:55:07;99950.08;;;8.66;61.22
24996;BME280;13016;52.162;21.034;2023-02-20T10:00:33;99922.66;;;8.63;61.13
24996;BME280;13016;52.162;21.034;2023-02-20T10:03:12;99914.06;;;8.66;60.59
24996;BME280;13016;52.162;21.034;2023-02-20T10:05:41;99908.20;;;8.31;61.08
24996;BME280;13016;52.162;21.034;2023-02-20T10:08:09;99910.56;;;8.15;61.49
24996;BME280;13016;52.162;21.034;2023-02-20T10:10:35;99902.90;;;7.90;61.72
24996;BME280;13016;52.162;21.034;2023-02-20T10:23:51;99864.57;;;8.02;61.21
24996;BME280;13016;52.162;21.034;2023-02-20T10:26:21;99856.52;;;7.96;61.23
24996;BME280;13016;52.162;21.034;2023-02-20T10:28:50;99852.83;;;7.90;61.33
24996;BME280;13016;52.162;21.034;2023-02-20T10:31:35;99848.64;;;7.65;62.09
24996;BME280;13016;52.162;21.034;2023-02-20T10:39:04;99838.33;;;7.52;62.63
24996;BME280;13016;52.162;21.034;2023-02-20T10:44:32;99826.55;;;7.68;62.40
24996;BME280;13016;52.162;21.034;2023-02-20T10:50:00;99811.50;;;7.70;62.42
24996;BME280;13016;52.162;21.034;2023-02-20T10:52:35;99808.48;;;7.56;62.76
24996;BME280;13016;52.162;21.034;2023-02-20T10:55:25;99802.15;;;7.65;62.89
24996;BME280;13016;52.162;21.034;2023-02-20T10:58:22;99793.86;;;7.45;63.58
24996;BME280;13016;52.162;21.034;2023-02-20T11:01:03;99787.58;;;7.56;63.49
24996;BME280;13016;52.162;21.034;2023-02-20T11:07:03;99769.05;;;7.52;63.53
24996;BME280;13016;52.162;21.034;2023-02-20T11:10:00;99753.73;;;7.53;63.84
24996;BME280;13016;52.162;21.034;2023-02-20T11:12:32;99756.73;;;7.49;64.13
24996;BME280;13016;52.162;21.034;2023-02-20T11:15:14;99745.81;;;7.74;63.60
24996;BME280;13016;52.162;21.034;2023-02-20T11:23:06;99725.36;;;7.58;63.50
24996;BME280;13016;52.162;21.034;2023-02-20T11:25:38;99706.14;;;7.50;63.70
24996;BME280;13016;52.162;21.034;2023-02-20T11:28:10;99686.20;;;7.58;63.68
24996;BME280;13016;52.162;21.034;2023-02-20T11:30:43;99651.64;;;7.64;63.57
24996;BME280;13016;52.162;21.034;2023-02-20T11:33:20;99545.50;;;7.43;63.65
24996;BME280;13016;52.162;21.034;2023-02-20T11:35:52;99610.84;;;7.45;64.45
24996;BME280;13016;52.162;21.034;2023-02-20T11:41:33;99593.27;;;7.85;63.74
24996;BME280;13016;52.162;21.034;2023-02-20T11:43:40;99571.38;;;7.95;63.46
24996;BME280;13016;52.162;21.034;2023-02-20T11:46:11;99577.02;;;7.98;63.63
24996;BME280;13016;52.162;21.034;2023-02-20T11:51:44;99553.90;;;8.02;64.03
24996;BME280;13016;52.162;21.034;2023-02-20T11:56:54;99529.79;;;8.11;64.49
24996;BME280;13016;52.162;21.034;2023-02-20T11:59:39;99516.38;;;7.93;64.80
24996;BME280;13016;52.162;21.034;2023-02-20T12:04:40;99501.38;;;8.13;65.01
24996;BME280;13016;52.162;21.034;2023-02-20T12:07:26;99509.90;;;8.17;65.06
24996;BME280;13016;52.162;21.034;2023-02-20T12:09:54;99485.98;;;8.04;65.74
24996;BME280;13016;52.162;21.034;2023-02-20T12:15:13;99456.12;;;8.32;65.45
24996;BME280;13016;52.162;21.034;2023-02-20T12:20:25;99415.30;;;8.76;65.04
24996;BME280;13016;52.162;21.034;2023-02-20T12:23:26;99400.08;;;8.72;65.02
24996;BME280;13016;52.162;21.034;2023-02-20T12:28:49;99388.79;;;8.93;65.18
24996;BME280;13016;52.162;21.034;2023-02-20T12:31:56;99375.66;;;8.87;65.24
24996;BME280;13016;52.162;21.034;2023-02-20T12:34:57;99387.64;;;9.09;64.93
24996;BME280;13016;52.162;21.034;2023-02-20T12:44:03;99383.27;;;9.36;64.57
24996;BME280;13016;52.162;21.034;2023-02-20T12:49:53;99385.33;;;9.66;64.06
24996;BME280;13016;52.162;21.034;2023-02-20T12:58:08;99379.98;;;9.85;63.28
24996;BME280;13016;52.162;21.034;2023-02-20T13:00:59;99375.49;;;9.94;63.04
24996;BME280;13016;52.162;21.034;2023-02-20T13:03:42;99381.27;;;9.96;63.17
24996;BME280;13016;52.162;21.034;2023-02-20T13:06:22;99382.40;;;10.05;62.83
24996;BME280;13016;52.162;21.034;2023-02-20T13:09:03;99382.70;;;10.15;62.76
24996;BME280;13016;52.162;21.034;2023-02-20T13:11:35;99384.41;;;10.02;62.55
24996;BME280;13016;52.162;21.034;2023-02-20T13:14:27;99393.90;;;10.04;62.51
24996;BME280;13016;52.162;21.034;2023-02-20T13:19:47;99381.23;;;10.32;62.07
24996;BME280;13016;52.162;21.034;2023-02-20T13:22:13;99369.81;;;10.22;61.97
24996;BME280;13016;52.162;21.034;2023-02-20T13:24:39;99357.21;;;10.19;61.96
24996;BME280;13016;52.162;21.034;2023-02-20T13:27:07;99365.11;;;10.24;62.15
24996;BME280;13016;52.162;21.034;2023-02-20T13:29:37;99354.60;;;10.47;61.78
24996;BME280;13016;52.162;21.034;2023-02-20T13:34:49;99355.45;;;10.54;61.15
24996;BME280;13016;52.162;21.034;2023-02-20T13:45:39;99317.65;;;10.30;61.82
24996;BME280;13016;52.162;21.034;2023-02-20T13:54:05;99287.94;;;10.61;61.10
24996;BME280;13016;52.162;21.034;2023-02-20T13:59:09;99293.25;;;11.00;60.09
24996;BME280;13016;52.162;21.034;2023-02-20T14:02:03;99287.60;;;11.09;59.70
24996;BME280;13016;52.162;21.034;2023-02-20T14:04:30;99286.19;;;11.13;59.24
24996;BME280;13016;52.162;21.034;2023-02-20T14:06:56;99276.98;;;11.07;59.39
24996;BME280;13016;52.162;21.034;2023-02-20T14:09:25;99279.36;;;11.06;59.38
24996;BME280;13016;52.162;21.034;2023-02-20T14:11:53;99288.80;;;11.02;59.33
24996;BME280;13016;52.162;21.034;2023-02-20T14:14:25;99283.52;;;11.20;59.05
24996;BME280;13016;52.162;21.034;2023-02-20T14:17:11;99264.05;;;11.33;58.83
24996;BME280;13016;52.162;21.034;2023-02-20T14:19:43;99277.01;;;11.35;58.62
24996;BME280;13016;52.162;21.034;2023-02-20T14:22:24;99264.80;;;11.24;58.94
24996;BME280;13016;52.162;21.034;2023-02-20T14:27:39;99248.04;;;11.39;58.52
24996;BME280;13016;52.162;21.034;2023-02-20T14:32:32;99229.44;;;11.57;58.00
24996;BME280;13016;52.162;21.034;2023-02-20T14:38:25;99238.25;;;11.55;58.22
24996;BME280;13016;52.162;21.034;2023-02-20T14:40:54;99230.38;;;11.76;57.59
24996;BME280;13016;52.162;21.034;2023-02-20T14:43:22;99240.66;;;11.79;57.35
24996;BME280;13016;52.162;21.034;2023-02-20T14:46:00;99235.23;;;11.81;57.19
24996;BME280;13016;52.162;21.034;2023-02-20T14:51:17;99203.45;;;11.91;56.98
24996;BME280;13016;52.162;21.034;2023-02-20T14:53:59;99191.98;;;11.86;56.91
24996;BME280;13016;52.162;21.034;2023-02-20T14:56:25;99197.90;;;12.06;56.69
24996;BME280;13016;52.162;21.034;2023-02-20T14:58:50;99209.99;;;12.05;56.53
24996;BME280;13016;52.162;21.034;2023-02-20T15:01:27;99194.98;;;12.05;56.47
24996;BME280;13016;52.162;21.034;2023-02-20T15:03:59;99183.48;;;11.74;57.15
24996;BME280;13016;52.162;21.034;2023-02-20T15:06:28;99176.88;;;11.93;57.03
24996;BME280;13016;52.162;21.034;2023-02-20T15:08:57;99182.14;;;12.12;56.28
24996;BME280;13016;52.162;21.034;2023-02-20T15:11:23;99188.48;;;11.97;56.61
24996;BME280;13016;52.162;21.034;2023-02-20T15:13:49;99194.54;;;12.14;56.35
24996;BME280;13016;52.162;21.034;2023-02-20T15:16:26;99180.06;;;12.34;55.81